Fort Rucker, Alabama
Current Conditions -  °F | °C
As of 3:53 AM on Monday 22 Dec 2014 (Local Time) from KLOR Reporting Station
Haze Haze  
Wind Chill: 52°   Ceiling: 300
Heat Index: 52°   Visibility: 0.75mi
Dew Point: 51°   Wind: 3mph
Humidity: 97%   Direction: 60°ENE
Pressure: 29.95"   Gusts: NA
Location:  31.34°N, 85.71°W
Report Text: KLOR 220953Z AUTO 06003KT 3/4SM BR VV003 11/11 A2995 RMK AO2 SLP142 T01110106 TSNO PNO $
Loading
Personal Weather Stations






























Interactive Weather Map New forecast layout! Learn more

10-Day Weather Forecast

Advertisements
Track Severe Weather on mobile